Avoca, Wisconsin
Current Conditions -  °F | °C
As of 1:56 AM on Friday 24 Oct 2014 (Local Time) from KLNR Reporting Station
Haze Haze  
Wind Chill: 11°   Ceiling: 300
Heat Index: 11°   Visibility: 2.5mi
Dew Point:   Wind: 6mph
Humidity: 86%   Direction: 270°W
Pressure: 30.04"   Gusts: NA
Location:  43.18°N, 90.32°W
Report Text: KLNR 240656Z AUTO 27005KT 2 1/2SM BR OVC003 11/09 A3004 RMK AO2 SLP171 T01110089
Loading
Personal Weather Stations






























Interactive Weather Map
Tropical Storm Tracking
New forecast layout! Learn more

10-Day Weather Forecast

Advertisements
Track Severe Weather on mobile